createdAt,value
2018-12-14T00:00:34.572Z,62.04
2018-12-14T00:04:42.374Z,61.75
2018-12-14T00:08:50.353Z,62.02
2018-12-14T00:12:56.195Z,63.20
2018-12-14T00:17:02.259Z,63.33
2018-12-14T00:21:08.186Z,63.87
2018-12-14T00:25:15.851Z,64.95
2018-12-14T00:29:21.636Z,64.56
2018-12-14T00:33:27.429Z,64.92
2018-12-14T00:37:33.388Z,64.37
2018-12-14T00:41:40.069Z,64.52
2018-12-14T00:45:45.831Z,63.67
2018-12-14T00:49:53.037Z,63.75
2018-12-14T00:53:58.820Z,63.52
2018-12-14T00:58:04.860Z,63.86
2018-12-14T01:02:15.772Z,63.71
2018-12-14T01:06:21.576Z,64.14
2018-12-14T01:10:27.455Z,63.84
2018-12-14T01:14:35.526Z,64.39
2018-12-14T01:18:41.492Z,63.78
2018-12-14T01:22:47.879Z,63.59
2018-12-14T01:26:53.834Z,63.62
2018-12-14T01:31:00.734Z,63.03
2018-12-14T01:35:06.698Z,63.96
2018-12-14T01:39:12.606Z,63.47
2018-12-14T01:43:18.340Z,62.82
2018-12-14T01:47:25.365Z,62.58
2018-12-14T01:51:31.603Z,62.86
2018-12-14T01:55:37.584Z,63.04
2018-12-14T01:59:43.251Z,63.21
2018-12-14T02:03:49.376Z,63.36
2018-12-14T02:07:55.111Z,63.14
2018-12-14T02:12:01.030Z,62.77
2018-12-14T02:16:06.854Z,63.06
2018-12-14T02:20:12.660Z,63.17
2018-12-14T02:24:18.708Z,63.39
2018-12-14T02:28:24.706Z,62.99
2018-12-14T02:32:30.486Z,63.70
2018-12-14T02:36:36.452Z,63.93
2018-12-14T02:40:42.335Z,63.57
2018-12-14T02:44:48.411Z,64.12
2018-12-14T02:48:54.102Z,64.17
2018-12-14T02:52:59.683Z,63.21
2018-12-14T02:57:05.466Z,63.66
2018-12-14T03:01:11.358Z,64.42
2018-12-14T03:05:17.337Z,64.50
2018-12-14T03:09:24.374Z,63.17
2018-12-14T03:13:30.258Z,64.03
2018-12-14T03:17:36.224Z,63.37
2018-12-14T03:21:41.961Z,64.49
2018-12-14T03:25:48.299Z,63.65
2018-12-14T03:29:54.106Z,63.76
2018-12-14T03:33:59.846Z,63.76
2018-12-14T03:38:05.737Z,63.80
2018-12-14T03:42:11.545Z,63.92
2018-12-14T03:46:17.475Z,64.57
2018-12-14T03:50:23.263Z,63.98
2018-12-14T03:54:29.267Z,63.59
2018-12-14T03:58:35.874Z,64.04
2018-12-14T04:02:41.690Z,64.25
2018-12-14T04:06:47.554Z,63.80
2018-12-14T04:10:53.636Z,64.18
2018-12-14T04:14:59.558Z,64.51
2018-12-14T04:19:05.691Z,62.70
2018-12-14T04:23:11.660Z,64.18
2018-12-14T04:27:17.523Z,62.75
2018-12-14T04:31:24.037Z,64.01
2018-12-14T04:35:29.892Z,63.57
2018-12-14T04:39:37.855Z,63.83
2018-12-14T04:43:43.739Z,63.35
2018-12-14T04:47:50.415Z,63.71
2018-12-14T04:51:56.170Z,64.14
2018-12-14T04:56:02.143Z,63.58
2018-12-14T05:00:09.150Z,62.69
2018-12-14T05:04:14.979Z,63.85
2018-12-14T05:08:20.997Z,64.36
2018-12-14T05:12:26.938Z,63.80
2018-12-14T05:16:32.847Z,63.69
2018-12-14T05:20:38.597Z,64.23
2018-12-14T05:24:44.546Z,64.63
2018-12-14T05:28:50.510Z,64.32
2018-12-14T05:32:56.300Z,63.28
2018-12-14T05:37:02.436Z,64.35
2018-12-14T05:41:08.322Z,64.18
2018-12-14T05:45:14.336Z,63.61
2018-12-14T05:49:20.338Z,63.47
2018-12-14T05:53:26.182Z,63.24
2018-12-14T05:57:32.002Z,63.76
2018-12-14T06:01:38.029Z,64.22
2018-12-14T06:05:44.218Z,63.51
2018-12-14T06:09:51.999Z,63.88
2018-12-14T06:13:57.940Z,65.24
2018-12-14T06:18:04.142Z,63.68
2018-12-14T06:22:09.946Z,64.47
2018-12-14T06:26:15.747Z,65.12
2018-12-14T06:30:21.676Z,64.23
2018-12-14T06:34:27.755Z,64.42
2018-12-14T06:38:33.724Z,63.25
2018-12-14T06:42:39.600Z,62.60
2018-12-14T06:46:45.431Z,62.62
2018-12-14T06:50:51.766Z,62.50
2018-12-14T06:54:57.640Z,62.36
2018-12-14T06:59:04.283Z,61.86
2018-12-14T07:03:11.785Z,62.55
2018-12-14T07:07:18.130Z,61.95
2018-12-14T07:11:24.543Z,61.31
2018-12-14T07:15:30.832Z,61.93
2018-12-14T07:19:37.993Z,62.06
2018-12-14T07:23:44.046Z,61.82
2018-12-14T07:27:52.529Z,61.34
2018-12-14T07:31:59.619Z,61.45
2018-12-14T07:36:05.791Z,62.49
2018-12-14T07:40:11.380Z,62.35
2018-12-14T07:44:16.955Z,61.82
2018-12-14T07:48:22.606Z,61.30
2018-12-14T07:52:28.397Z,61.47
2018-12-14T07:56:36.359Z,61.76
2018-12-14T08:00:42.323Z,62.46
2018-12-14T08:04:48.262Z,61.37
2018-12-14T08:08:53.860Z,61.96
2018-12-14T08:12:59.729Z,61.96
2018-12-14T08:17:05.274Z,61.71
2018-12-14T08:21:10.809Z,61.96
2018-12-14T08:25:16.382Z,61.79
2018-12-14T08:29:21.923Z,62.59
2018-12-14T08:33:27.701Z,61.38
2018-12-14T08:37:33.312Z,62.31
2018-12-14T08:41:38.978Z,61.55
2018-12-14T08:45:44.990Z,61.84
2018-12-14T08:49:50.531Z,61.72
2018-12-14T08:53:56.183Z,61.28
2018-12-14T08:58:03.231Z,61.92
2018-12-14T09:02:09.898Z,61.56
2018-12-14T09:06:15.830Z,61.61
2018-12-14T09:10:21.753Z,62.11
2018-12-14T09:14:27.409Z,61.87
2018-12-14T09:18:32.929Z,61.72
2018-12-14T09:22:38.510Z,62.98
2018-12-14T09:26:44.182Z,61.92
2018-12-14T09:30:49.742Z,62.22
2018-12-14T09:34:55.603Z,62.13
2018-12-14T09:39:01.172Z,61.71
2018-12-14T09:43:08.752Z,61.87
2018-12-14T09:47:14.406Z,62.41
2018-12-14T09:51:21.090Z,61.60
2018-12-14T09:55:26.631Z,61.65
2018-12-14T09:59:32.460Z,61.28
2018-12-14T10:03:38.601Z,62.23
2018-12-14T10:07:46.909Z,61.62
2018-12-14T10:11:55.091Z,61.63
2018-12-14T10:16:00.210Z,61.65
2018-12-14T10:20:08.387Z,62.27
2018-12-14T10:24:14.384Z,61.30
2018-12-14T10:28:20.412Z,61.33
2018-12-14T10:32:26.341Z,61.57
2018-12-14T10:36:32.010Z,61.83
2018-12-14T10:40:38.578Z,61.88
2018-12-14T10:44:44.531Z,61.37
2018-12-14T10:48:50.189Z,60.68
2018-12-14T10:52:55.820Z,60.49
2018-12-14T10:57:01.439Z,60.19
2018-12-14T11:02:14.234Z,61.10
2018-12-14T11:06:20.406Z,60.81
2018-12-14T11:10:26.085Z,60.98
2018-12-14T11:14:32.285Z,61.58
2018-12-14T11:18:41.274Z,60.85
2018-12-14T11:22:46.799Z,61.42
2018-12-14T11:26:53.578Z,59.98
2018-12-14T11:30:59.542Z,60.53
2018-12-14T11:35:05.274Z,60.12
2018-12-14T11:39:12.212Z,60.04
2018-12-14T11:43:17.921Z,60.71
2018-12-14T11:47:23.733Z,60.81
2018-12-14T11:51:29.473Z,60.48
2018-12-14T11:55:36.321Z,60.37
2018-12-14T11:59:41.951Z,59.99
2018-12-14T12:03:47.529Z,61.11
2018-12-14T12:07:53.489Z,59.75
2018-12-14T12:11:59.238Z,60.68
2018-12-14T12:16:05.179Z,60.69
2018-12-14T12:20:11.146Z,60.31
2018-12-14T12:24:16.836Z,59.77
2018-12-14T12:28:23.256Z,59.34
2018-12-14T12:32:30.460Z,59.25
2018-12-14T12:36:37.264Z,60.08
2018-12-14T12:40:43.489Z,59.55
2018-12-14T12:44:49.117Z,60.48
2018-12-14T12:48:55.214Z,59.21
2018-12-14T12:53:00.975Z,59.19
2018-12-14T12:57:06.749Z,59.28
2018-12-14T13:01:12.364Z,59.64
2018-12-14T13:05:18.570Z,59.26
2018-12-14T13:09:24.398Z,59.95
2018-12-14T13:17:54.819Z,59.45
2018-12-14T13:22:00.421Z,58.42
2018-12-14T13:26:06.042Z,59.16
2018-12-14T13:30:11.821Z,58.53
2018-12-14T13:34:17.604Z,59.12
2018-12-14T13:38:23.236Z,59.04
2018-12-14T13:42:28.968Z,58.42
2018-12-14T13:46:34.683Z,59.07
2018-12-14T13:50:40.754Z,59.56
2018-12-14T13:54:47.655Z,59.27
2018-12-14T13:58:54.181Z,59.04
2018-12-14T14:02:59.942Z,58.81
2018-12-14T14:07:05.504Z,58.54
2018-12-14T14:11:11.218Z,58.62
2018-12-14T14:15:20.901Z,59.08
2018-12-14T14:19:25.610Z,59.25
2018-12-14T14:23:31.257Z,59.38
2018-12-14T14:27:36.809Z,59.52
2018-12-14T14:31:42.587Z,58.71
2018-12-14T14:35:48.177Z,59.38
2018-12-14T14:39:54.899Z,59.24
2018-12-14T14:44:00.949Z,57.85
2018-12-14T14:48:06.737Z,58.93
2018-12-14T14:52:12.421Z,58.38
2018-12-14T14:56:18.026Z,59.75
2018-12-14T15:00:24.252Z,58.84
2018-12-14T15:04:30.060Z,59.82
2018-12-14T15:08:35.975Z,58.86
2018-12-14T15:12:42.300Z,59.95
2018-12-14T15:16:48.817Z,59.28
2018-12-14T15:20:54.589Z,59.70
2018-12-14T15:25:01.549Z,60.39
2018-12-14T15:29:08.272Z,59.97
2018-12-14T15:33:15.862Z,60.61
2018-12-14T15:37:21.506Z,60.99
2018-12-14T15:41:27.306Z,61.12
2018-12-14T15:45:33.668Z,61.10
2018-12-14T15:49:39.585Z,59.91
2018-12-14T15:53:45.755Z,59.75
2018-12-14T15:57:51.982Z,60.51
2018-12-14T16:01:58.331Z,61.00
2018-12-14T16:06:04.566Z,60.11
2018-12-14T16:10:10.364Z,60.46
2018-12-14T16:18:50.100Z,60.50
2018-12-14T16:23:02.774Z,61.29
2018-12-14T16:27:17.094Z,61.07
2018-12-14T16:31:31.885Z,60.96
2018-12-14T16:35:48.039Z,60.89
2018-12-14T16:40:02.527Z,61.55
2018-12-14T16:44:20.779Z,60.61
2018-12-14T16:48:38.504Z,61.62
2018-12-14T16:52:54.347Z,61.23
2018-12-14T16:57:05.975Z,61.00
2018-12-14T17:01:19.397Z,60.09
2018-12-14T17:05:33.143Z,60.65
2018-12-14T17:09:46.153Z,60.93
2018-12-14T17:14:00.382Z,60.23
2018-12-14T17:18:13.888Z,60.71
2018-12-14T17:22:29.039Z,60.44
2018-12-14T17:26:38.137Z,60.00
2018-12-14T17:30:49.270Z,59.83
2018-12-14T17:35:05.487Z,59.68
2018-12-14T17:39:17.895Z,59.33
2018-12-14T18:02:21.028Z,60.05
2018-12-14T18:06:28.448Z,59.48
2018-12-14T18:10:34.447Z,58.86
2018-12-14T18:14:40.679Z,58.89
2018-12-14T18:18:46.300Z,59.83
2018-12-14T18:22:52.802Z,59.15
2018-12-14T18:26:58.823Z,58.75
2018-12-14T18:31:05.603Z,59.94
2018-12-14T18:35:11.322Z,59.34
2018-12-14T18:39:17.309Z,59.49
2018-12-14T18:43:22.916Z,60.15
2018-12-14T18:47:28.619Z,59.79
2018-12-14T18:51:34.403Z,59.06
2018-12-14T18:55:40.081Z,59.07
2018-12-14T18:59:46.327Z,59.67
2018-12-14T19:03:53.642Z,58.62
2018-12-14T19:07:59.739Z,61.67
2018-12-14T19:12:05.888Z,59.14
2018-12-14T19:16:12.050Z,58.85
2018-12-14T19:20:19.114Z,59.53
2018-12-14T19:24:25.355Z,58.69
2018-12-14T19:28:31.416Z,59.15
2018-12-14T19:32:38.985Z,58.92
2018-12-14T19:36:45.022Z,58.73
2018-12-14T19:40:50.970Z,59.76
2018-12-14T19:44:56.988Z,59.15
2018-12-14T19:49:03.189Z,59.40
2018-12-14T19:53:08.961Z,59.13
2018-12-14T19:57:14.751Z,58.88
2018-12-14T20:01:23.588Z,58.78
2018-12-14T20:05:29.627Z,58.54
2018-12-14T20:09:35.726Z,58.42
2018-12-14T20:13:41.583Z,58.30
2018-12-14T20:17:48.787Z,59.61
2018-12-14T20:21:54.711Z,59.30
2018-12-14T20:26:02.171Z,60.28
2018-12-14T20:30:09.418Z,59.29
2018-12-14T20:34:18.760Z,59.76
2018-12-14T20:38:25.468Z,59.81
2018-12-14T20:42:31.463Z,60.45
2018-12-14T20:46:37.413Z,60.29
2018-12-14T20:50:43.410Z,60.60
2018-12-14T20:54:49.543Z,61.78
2018-12-14T20:58:55.786Z,61.42
2018-12-14T21:03:03.775Z,60.55
2018-12-14T21:07:10.604Z,61.30
2018-12-14T21:11:17.050Z,61.37
2018-12-14T21:19:46.827Z,61.77
2018-12-14T21:23:54.717Z,61.63
2018-12-14T21:28:11.792Z,61.24
2018-12-14T21:32:21.043Z,62.07
2018-12-14T21:40:42.525Z,62.76
2018-12-14T21:44:50.752Z,62.02
2018-12-14T21:49:01.237Z,62.04
2018-12-14T21:53:14.472Z,61.40
2018-12-14T21:57:23.185Z,61.26
2018-12-14T22:01:32.148Z,61.08
2018-12-14T22:09:58.763Z,62.12
2018-12-14T22:14:06.293Z,61.34
2018-12-14T22:18:14.779Z,62.21
2018-12-14T22:22:27.425Z,62.52
2018-12-14T22:26:36.142Z,62.11
2018-12-14T22:30:46.907Z,62.45
2018-12-14T22:34:55.891Z,62.79
2018-12-14T22:39:16.536Z,62.80
2018-12-14T22:43:28.839Z,62.40
2018-12-14T22:47:38.145Z,63.46
2018-12-14T22:51:48.156Z,63.95
2018-12-14T23:00:22.063Z,63.70
2018-12-14T23:04:32.383Z,63.72
2018-12-14T23:08:43.250Z,63.74
2018-12-14T23:12:52.699Z,64.17
2018-12-14T23:17:00.291Z,71.40
2018-12-14T23:21:09.551Z,64.70
2018-12-14T23:25:18.135Z,64.24
2018-12-14T23:29:30.739Z,64.31
2018-12-14T23:33:37.587Z,64.19
2018-12-14T23:37:43.497Z,64.11
2018-12-14T23:41:49.516Z,63.96
2018-12-14T23:45:55.613Z,64.34
2018-12-14T23:50:02.385Z,64.17
2018-12-14T23:54:09.169Z,64.07
2018-12-14T23:58:15.679Z,64.68
